Time;durP1;ratioP1;P1;durP2;ratioP2;P2;SDS_P1;SDS_P2;PMS_P1;PMS_P2;Temp;Humidity;BMP_temperature;BMP_pressure;BME280_temperature;BME280_humidity;BME280_pressure;Samples;Min_cycle;Max_cycle;Signal;HPM_P1;HPM_P2
2022/06/17 00:00:57;;;;;;;4.25;3.33;;;;;;;;;;5077129;28;20203;-57
2022/06/17 00:03:28;;;;;;;4.65;3.28;;;;;;;;;;5076808;28;20493;-57
2022/06/17 00:05:57;;;;;;;6.50;3.30;;;;;;;;;;5076831;28;20199;-56
2022/06/17 00:08:31;;;;;;;5.32;3.42;;;;;;;;;;5059280;28;20218;-57
2022/06/17 00:10:58;;;;;;;4.78;3.50;;;;;;;;;;5059263;28;20238;-57
2022/06/17 00:13:25;;;;;;;5.22;3.90;;;;;;;;;;5076583;28;20547;-58
2022/06/17 00:15:52;;;;;;;5.47;4.07;;;;;;;;;;5077028;28;20211;-57
2022/06/17 00:18:20;;;;;;;5.00;3.67;;;;;;;;;;5059059;28;20207;-58
2022/06/17 00:20:48;;;;;;;5.75;4.68;;;;;;;;;;5076429;28;20238;-58
2022/06/17 00:23:18;;;;;;;6.13;4.38;;;;;;;;;;5076712;28;20199;-58
2022/06/17 00:25:47;;;;;;;5.60;4.20;;;;;;;;;;5059157;28;20697;-58
2022/06/17 00:28:19;;;;;;;6.70;4.30;;;;;;;;;;5076793;28;20207;-58
2022/06/17 00:30:48;;;;;;;5.82;4.70;;;;;;;;;;5076359;28;20207;-57
2022/06/17 00:33:16;;;;;;;5.15;4.68;;;;;;;;;;5076711;28;20269;-58
2022/06/17 00:35:54;;;;;;;5.85;4.72;;;;;;;;;;5076323;28;20199;-59
2022/06/17 00:38:29;;;;;;;6.47;4.78;;;;;;;;;;5059497;28;20187;-58
2022/06/17 00:40:59;;;;;;;8.65;4.78;;;;;;;;;;5058704;28;20191;-58
2022/06/17 00:43:33;;;;;;;5.35;4.70;;;;;;;;;;5058976;28;20214;-58
2022/06/17 00:46:45;;;;;;;8.25;4.90;;;;;;;;;;5076388;28;20263;-58
2022/06/17 00:49:23;;;;;;;6.25;4.43;;;;;;;;;;4975571;28;20245;-59
2022/06/17 00:52:15;;;;;;;5.25;4.63;;;;;;;;;;4960152;28;20238;-58
2022/06/17 00:54:51;;;;;;;5.75;4.65;;;;;;;;;;4959479;28;20206;-58
2022/06/17 00:57:25;;;;;;;6.00;4.72;;;;;;;;;;4959573;28;20329;-58
2022/06/17 01:00:08;;;;;;;5.28;4.50;;;;;;;;;;4975412;28;20233;-59
2022/06/17 01:02:47;;;;;;;6.72;4.68;;;;;;;;;;4959734;28;20207;-58
2022/06/17 01:05:17;;;;;;;9.07;4.53;;;;;;;;;;4959197;28;20674;-58
2022/06/17 01:07:54;;;;;;;5.90;4.32;;;;;;;;;;4959328;28;20301;-57
2022/06/17 01:10:23;;;;;;;5.65;4.72;;;;;;;;;;4975380;28;20584;-59
2022/06/17 01:12:53;;;;;;;5.88;3.90;;;;;;;;;;4975128;28;20261;-59
2022/06/17 01:15:22;;;;;;;6.40;4.45;;;;;;;;;;4975070;28;20298;-59
2022/06/17 01:17:53;;;;;;;7.68;4.78;;;;;;;;;;4959210;28;20218;-58
2022/06/17 01:20:23;;;;;;;6.78;4.07;;;;;;;;;;4984872;28;20249;-57
2022/06/17 01:22:53;;;;;;;6.72;4.20;;;;;;;;;;4997836;28;20211;-58
2022/06/17 01:25:32;;;;;;;5.00;4.40;;;;;;;;;;4997936;28;20216;-56
2022/06/17 01:28:03;;;;;;;6.75;4.70;;;;;;;;;;4997986;28;20209;-57
2022/06/17 01:30:33;;;;;;;7.47;4.80;;;;;;;;;;5014049;28;20220;-55
2022/06/17 01:33:04;;;;;;;7.80;4.57;;;;;;;;;;4997887;28;20229;-57
2022/06/17 01:35:49;;;;;;;7.28;4.60;;;;;;;;;;4997685;28;20221;-58
2022/06/17 01:38:16;;;;;;;6.07;4.30;;;;;;;;;;5013684;28;20235;-58
2022/06/17 01:40:44;;;;;;;6.03;4.03;;;;;;;;;;4996586;28;20237;-57
2022/06/17 01:43:13;;;;;;;7.05;4.43;;;;;;;;;;4997121;28;20240;-58
2022/06/17 01:45:45;;;;;;;7.15;4.38;;;;;;;;;;4997043;28;20210;-57
2022/06/17 01:48:15;;;;;;;8.98;4.30;;;;;;;;;;5012095;28;20196;-57
2022/06/17 01:50:45;;;;;;;6.50;4.47;;;;;;;;;;5041335;28;20210;-58
2022/06/17 01:53:16;;;;;;;8.25;4.40;;;;;;;;;;5040620;28;20207;-58
2022/06/17 01:55:50;;;;;;;8.93;4.68;;;;;;;;;;5040685;28;20223;-57
2022/06/17 01:58:17;;;;;;;8.68;4.20;;;;;;;;;;5057238;28;20265;-57
2022/06/17 02:00:44;;;;;;;5.15;4.20;;;;;;;;;;5057212;28;20226;-57
2022/06/17 02:03:19;;;;;;;5.35;4.20;;;;;;;;;;5040789;28;20214;-58
2022/06/17 02:05:50;;;;;;;6.57;4.50;;;;;;;;;;5057058;28;20209;-58
2022/06/17 02:08:18;;;;;;;10.50;4.50;;;;;;;;;;5057470;28;20234;-58
2022/06/17 02:10:47;;;;;;;5.82;4.80;;;;;;;;;;5056844;28;20217;-58
2022/06/17 02:13:15;;;;;;;8.25;4.28;;;;;;;;;;5040481;28;20537;-58
2022/06/17 02:16:02;;;;;;;8.68;4.40;;;;;;;;;;5074437;28;20221;-58
2022/06/17 02:18:55;;;;;;;9.50;4.75;;;;;;;;;;5037699;28;20288;-57
2022/06/17 02:21:29;;;;;;;7.57;4.70;;;;;;;;;;5056954;28;20268;-58
2022/06/17 02:23:56;;;;;;;8.80;5.00;;;;;;;;;;5057052;28;20207;-58
2022/06/17 02:26:23;;;;;;;10.13;4.78;;;;;;;;;;5057114;28;20233;-58
2022/06/17 02:28:51;;;;;;;9.00;4.60;;;;;;;;;;5056767;28;20204;-58
2022/06/17 02:31:21;;;;;;;7.53;4.65;;;;;;;;;;5040904;28;20195;-59
2022/06/17 02:33:51;;;;;;;8.75;4.85;;;;;;;;;;5056806;28;20527;-58
2022/06/17 02:36:28;;;;;;;7.97;4.93;;;;;;;;;;5040989;28;20653;-57
2022/06/17 02:38:55;;;;;;;10.43;4.65;;;;;;;;;;5056796;28;20226;-57
2022/06/17 02:41:23;;;;;;;5.70;4.20;;;;;;;;;;5056839;28;20207;-57
2022/06/17 02:44:14;;;;;;;7.50;4.93;;;;;;;;;;5056716;28;20246;-57
2022/06/17 02:46:43;;;;;;;6.57;4.53;;;;;;;;;;5040556;28;20608;-59
2022/06/17 02:49:22;;;;;;;8.95;4.95;;;;;;;;;;5057235;28;20230;-57
2022/06/17 02:51:52;;;;;;;11.20;5.30;;;;;;;;;;5059172;28;20195;-57
2022/06/17 02:54:28;;;;;;;7.68;5.18;;;;;;;;;;5045127;28;20202;-58
2022/06/17 02:56:57;;;;;;;9.02;5.07;;;;;;;;;;5060768;28;20325;-59
2022/06/17 02:59:36;;;;;;;9.27;4.80;;;;;;;;;;5060595;28;20220;-58
2022/06/17 03:02:38;;;;;;;7.97;4.85;;;;;;;;;;5077134;28;20195;-58
2022/06/17 03:05:19;;;;;;;10.88;5.20;;;;;;;;;;5037375;28;20199;-57
2022/06/17 03:07:47;;;;;;;9.05;5.45;;;;;;;;;;5077719;28;20226;-58
2022/06/17 03:10:40;;;;;;;7.57;5.40;;;;;;;;;;5061292;28;20566;-58
2022/06/17 03:13:15;;;;;;;6.93;5.05;;;;;;;;;;5076953;28;20187;-58
2022/06/17 03:15:45;;;;;;;6.60;5.45;;;;;;;;;;5044451;28;20249;-58
2022/06/17 03:18:14;;;;;;;9.55;5.70;;;;;;;;;;5060268;28;20609;-57
2022/06/17 03:20:46;;;;;;;7.78;6.32;;;;;;;;;;5061079;28;20231;-58
2022/06/17 03:23:17;;;;;;;9.18;6.35;;;;;;;;;;5060725;28;20235;-58
2022/06/17 03:26:03;;;;;;;7.53;5.82;;;;;;;;;;5044125;28;20216;-58
2022/06/17 03:28:37;;;;;;;7.97;5.60;;;;;;;;;;5060281;28;20285;-59
2022/06/17 03:31:08;;;;;;;12.30;6.45;;;;;;;;;;5060326;28;20231;-58
2022/06/17 03:33:45;;;;;;;11.77;6.72;;;;;;;;;;5044606;28;20187;-58
2022/06/17 03:36:23;;;;;;;7.78;6.07;;;;;;;;;;5060338;28;20192;-58
2022/06/17 03:38:56;;;;;;;8.73;6.15;;;;;;;;;;5060270;28;20501;-58
2022/06/17 03:41:36;;;;;;;10.80;6.45;;;;;;;;;;5077379;28;20277;-58
2022/06/17 03:44:09;;;;;;;11.43;6.05;;;;;;;;;;5060634;28;20203;-56
2022/06/17 03:46:43;;;;;;;8.20;5.90;;;;;;;;;;5043790;28;20195;-57
2022/06/17 03:49:16;;;;;;;12.40;5.95;;;;;;;;;;5043953;28;20286;-57
2022/06/17 03:51:44;;;;;;;7.25;6.20;;;;;;;;;;5060114;28;20187;-57
2022/06/17 03:54:13;;;;;;;9.63;5.95;;;;;;;;;;5043515;28;20203;-57
2022/06/17 03:56:50;;;;;;;9.63;5.78;;;;;;;;;;5042875;28;20273;-57
2022/06/17 03:59:24;;;;;;;8.05;5.00;;;;;;;;;;5059900;28;20182;-57
2022/06/17 04:01:58;;;;;;;6.75;5.38;;;;;;;;;;5043261;28;20201;-58
2022/06/17 04:04:31;;;;;;;7.07;4.82;;;;;;;;;;5059816;28;20289;-57
2022/06/17 04:07:01;;;;;;;7.03;4.40;;;;;;;;;;5059755;28;20196;-58
2022/06/17 04:09:37;;;;;;;9.60;4.80;;;;;;;;;;5059704;28;20208;-57
2022/06/17 04:12:22;;;;;;;5.43;4.00;;;;;;;;;;5059275;28;20203;-57
2022/06/17 04:15:29;;;;;;;6.88;4.20;;;;;;;;;;5045346;28;20211;-57
2022/06/17 04:17:56;;;;;;;6.80;4.40;;;;;;;;;;5059546;28;20210;-58
2022/06/17 04:20:26;;;;;;;7.63;4.82;;;;;;;;;;5076604;28;20223;-58
2022/06/17 04:22:57;;;;;;;5.38;4.00;;;;;;;;;;5075647;28;20192;-58
2022/06/17 04:25:43;;;;;;;4.70;3.67;;;;;;;;;;5062489;28;20203;-58
2022/06/17 04:28:14;;;;;;;6.45;4.07;;;;;;;;;;5058736;28;20207;-57
2022/06/17 04:30:47;;;;;;;5.22;3.25;;;;;;;;;;5059428;28;20194;-58
2022/06/17 04:33:22;;;;;;;8.52;4.10;;;;;;;;;;5058998;28;20264;-57
2022/06/17 04:35:54;;;;;;;7.95;3.78;;;;;;;;;;5060205;28;20195;-58
2022/06/17 04:38:22;;;;;;;5.28;3.20;;;;;;;;;;5043034;28;20192;-56
2022/06/17 04:41:02;;;;;;;4.75;3.45;;;;;;;;;;5075592;28;20242;-57
2022/06/17 04:43:57;;;;;;;7.47;3.63;;;;;;;;;;5062720;28;20281;-53
2022/06/17 04:46:41;;;;;;;10.48;3.63;;;;;;;;;;5043003;28;20211;-55
2022/06/17 04:49:18;;;;;;;5.43;3.50;;;;;;;;;;5043228;28;20200;-56
2022/06/17 04:51:46;;;;;;;7.75;3.33;;;;;;;;;;5042066;28;20229;-55
2022/06/17 04:54:14;;;;;;;5.25;3.30;;;;;;;;;;5058401;28;20222;-55
2022/06/17 04:57:09;;;;;;;4.95;3.00;;;;;;;;;;5058363;28;20242;-57
2022/06/17 04:59:44;;;;;;;5.28;2.58;;;;;;;;;;5058697;28;20543;-56
2022/06/17 05:02:32;;;;;;;4.78;2.85;;;;;;;;;;5058429;28;20207;-57
2022/06/17 05:05:24;;;;;;;9.55;3.20;;;;;;;;;;5061397;28;20578;-56
2022/06/17 05:07:52;;;;;;;5.75;2.80;;;;;;;;;;5074825;28;20257;-57
2022/06/17 05:10:38;;;;;;;5.50;3.00;;;;;;;;;;5058404;28;20195;-55
2022/06/17 05:13:19;;;;;;;8.23;3.17;;;;;;;;;;5041814;28;20199;-58
2022/06/17 05:15:46;;;;;;;5.63;2.45;;;;;;;;;;5057597;28;20203;-57
2022/06/17 05:18:14;;;;;;;7.35;2.20;;;;;;;;;;5057947;28;20631;-57
2022/06/17 05:20:42;;;;;;;8.52;3.20;;;;;;;;;;5058024;28;20223;-57
2022/06/17 05:23:12;;;;;;;5.93;2.40;;;;;;;;;;5057727;28;20290;-57
2022/06/17 05:25:45;;;;;;;7.70;2.72;;;;;;;;;;5041695;28;20210;-56
2022/06/17 05:28:18;;;;;;;4.18;2.30;;;;;;;;;;5058159;28;20397;-57
2022/06/17 05:30:52;;;;;;;6.60;2.60;;;;;;;;;;5058462;28;20211;-56
2022/06/17 05:33:31;;;;;;;3.65;2.00;;;;;;;;;;5043207;28;20187;-57
2022/06/17 05:35:59;;;;;;;7.30;2.70;;;;;;;;;;5057812;28;20207;-56
2022/06/17 05:38:29;;;;;;;3.75;2.28;;;;;;;;;;5057605;28;20276;-56
2022/06/17 05:40:57;;;;;;;5.53;2.40;;;;;;;;;;5057678;28;20215;-56
2022/06/17 05:43:25;;;;;;;7.90;2.30;;;;;;;;;;5074362;28;20253;-56
2022/06/17 05:45:52;;;;;;;3.85;1.90;;;;;;;;;;5058008;28;20199;-57
2022/06/17 05:48:45;;;;;;;5.78;2.22;;;;;;;;;;5051596;28;20203;-56
2022/06/17 05:51:31;;;;;;;5.55;2.50;;;;;;;;;;5057652;28;20214;-55
2022/06/17 05:54:16;;;;;;;6.40;2.60;;;;;;;;;;5075192;28;20214;-55
2022/06/17 05:56:55;;;;;;;8.43;2.15;;;;;;;;;;5057267;28;20231;-56
2022/06/17 05:59:27;;;;;;;5.85;2.25;;;;;;;;;;5057751;28;20210;-57
2022/06/17 06:01:54;;;;;;;4.13;2.50;;;;;;;;;;5074789;28;20333;-56
2022/06/17 06:04:41;;;;;;;7.40;2.72;;;;;;;;;;5057483;28;20561;-57
2022/06/17 06:07:09;;;;;;;6.05;2.75;;;;;;;;;;5074599;28;20708;-56
2022/06/17 06:09:38;;;;;;;7.55;2.65;;;;;;;;;;5057380;28;20199;-56
2022/06/17 06:12:06;;;;;;;10.00;2.88;;;;;;;;;;5057455;28;20199;-54
2022/06/17 06:14:34;;;;;;;6.75;2.65;;;;;;;;;;5057350;28;20226;-56
2022/06/17 06:17:01;;;;;;;3.75;2.47;;;;;;;;;;5057210;28;20200;-55
2022/06/17 06:19:31;;;;;;;6.88;2.80;;;;;;;;;;5074143;28;20237;-55
2022/06/17 06:21:59;;;;;;;6.80;2.75;;;;;;;;;;5074619;28;20296;-55
2022/06/17 06:24:26;;;;;;;5.40;2.70;;;;;;;;;;5057192;28;20199;-51
2022/06/17 06:26:53;;;;;;;4.13;2.40;;;;;;;;;;5061563;28;20203;-56
2022/06/17 06:29:26;;;;;;;5.45;2.60;;;;;;;;;;5061432;28;20195;-53
2022/06/17 06:31:55;;;;;;;6.80;2.67;;;;;;;;;;5061520;28;20207;-55
2022/06/17 06:34:34;;;;;;;4.97;2.38;;;;;;;;;;5061078;28;20666;-56
2022/06/17 06:37:01;;;;;;;3.85;2.20;;;;;;;;;;5061235;28;20214;-55
2022/06/17 06:39:29;;;;;;;6.53;2.67;;;;;;;;;;5061161;28;20198;-54
2022/06/17 06:42:20;;;;;;;6.40;2.45;;;;;;;;;;5154165;27;20273;-56
2022/06/17 06:45:25;;;;;;;4.22;2.45;;;;;;;;;;5154172;27;20201;-56
2022/06/17 06:47:55;;;;;;;6.53;2.42;;;;;;;;;;5153244;27;20201;-55
2022/06/17 06:50:26;;;;;;;4.95;2.40;;;;;;;;;;5153952;27;20216;-57
2022/06/17 06:52:54;;;;;;;3.33;2.50;;;;;;;;;;5153234;27;20243;-55
2022/06/17 06:55:21;;;;;;;4.78;2.30;;;;;;;;;;5153607;27;20208;-55
2022/06/17 06:57:55;;;;;;;6.00;2.50;;;;;;;;;;5153903;27;20211;-55
2022/06/17 07:00:25;;;;;;;5.38;2.25;;;;;;;;;;5152764;27;20706;-55
2022/06/17 07:02:52;;;;;;;11.70;3.08;;;;;;;;;;5152709;27;20208;-56
2022/06/17 07:05:19;;;;;;;8.77;2.70;;;;;;;;;;5152862;27;20528;-55
2022/06/17 07:07:47;;;;;;;10.40;3.47;;;;;;;;;;5152854;27;20196;-56
2022/06/17 07:10:26;;;;;;;6.80;2.70;;;;;;;;;;5153534;27;20212;-55
2022/06/17 07:12:54;;;;;;;4.18;2.50;;;;;;;;;;5153711;27;20617;-57
2022/06/17 07:15:22;;;;;;;11.07;2.70;;;;;;;;;;5153618;27;20204;-55
2022/06/17 07:18:00;;;;;;;7.63;3.33;;;;;;;;;;5153582;27;20255;-55
2022/06/17 07:20:36;;;;;;;5.22;2.58;;;;;;;;;;5153407;27;20228;-57
2022/06/17 07:23:10;;;;;;;7.47;2.80;;;;;;;;;;5153286;27;20204;-57
2022/06/17 07:25:38;;;;;;;5.40;2.70;;;;;;;;;;5153311;27;20510;-56
2022/06/17 07:28:06;;;;;;;5.63;2.53;;;;;;;;;;5153381;27;20208;-52
2022/06/17 07:30:34;;;;;;;6.47;3.30;;;;;;;;;;5152910;27;20296;-56
2022/06/17 07:33:01;;;;;;;5.70;2.50;;;;;;;;;;5152941;27;20200;-55
2022/06/17 07:35:28;;;;;;;5.38;2.30;;;;;;;;;;5152957;27;20197;-57
2022/06/17 07:40:47;;;;;;;5.00;2.55;;;;;;;;;;5152805;27;20243;-56
2022/06/17 07:43:18;;;;;;;5.80;2.40;;;;;;;;;;5153078;27;20194;-55
2022/06/17 07:45:45;;;;;;;7.45;2.72;;;;;;;;;;5153641;27;20196;-58
2022/06/17 07:48:14;;;;;;;5.00;2.47;;;;;;;;;;5152893;27;20193;-58
2022/06/17 07:50:41;;;;;;;4.95;2.45;;;;;;;;;;5152839;27;20204;-56
2022/06/17 07:53:08;;;;;;;8.02;2.40;;;;;;;;;;5142046;27;20209;-56
2022/06/17 07:55:36;;;;;;;4.75;2.42;;;;;;;;;;5138899;27;20522;-57
2022/06/17 07:58:04;;;;;;;4.60;2.15;;;;;;;;;;5139177;27;20280;-56
2022/06/17 08:00:37;;;;;;;4.22;2.05;;;;;;;;;;5138432;27;20584;-55
2022/06/17 08:03:12;;;;;;;5.90;2.03;;;;;;;;;;5138978;27;20292;-56
2022/06/17 08:05:42;;;;;;;3.88;2.10;;;;;;;;;;5138678;27;20653;-55
2022/06/17 08:08:10;;;;;;;3.92;2.15;;;;;;;;;;5137791;27;20213;-55
2022/06/17 08:10:37;;;;;;;5.95;2.13;;;;;;;;;;5138666;27;20201;-55
2022/06/17 08:13:07;;;;;;;7.82;2.20;;;;;;;;;;5138560;27;20519;-54
2022/06/17 08:15:35;;;;;;;5.05;1.92;;;;;;;;;;5138616;27;20262;-57
2022/06/17 08:18:02;;;;;;;7.32;1.70;;;;;;;;;;5138440;27;20201;-56
2022/06/17 08:20:33;;;;;;;6.45;2.10;;;;;;;;;;5138107;27;20204;-55
2022/06/17 08:23:02;;;;;;;4.78;2.00;;;;;;;;;;5138779;27;20225;-55
2022/06/17 08:25:30;;;;;;;4.50;1.90;;;;;;;;;;5138220;27;20208;-57
2022/06/17 08:28:02;;;;;;;5.22;1.80;;;;;;;;;;5138232;27;20258;-55
2022/06/17 08:30:32;;;;;;;4.45;1.70;;;;;;;;;;5138869;27;20205;-56
2022/06/17 08:33:00;;;;;;;4.20;1.85;;;;;;;;;;5138349;27;20200;-56
2022/06/17 08:35:48;;;;;;;4.60;2.05;;;;;;;;;;5138561;27;20258;-59
2022/06/17 08:38:22;;;;;;;5.90;1.70;;;;;;;;;;5137958;27;20212;-59
2022/06/17 08:40:55;;;;;;;6.03;2.08;;;;;;;;;;5136910;27;20237;-58
2022/06/17 08:43:57;;;;;;;7.38;1.98;;;;;;;;;;5137953;27;20201;-59
2022/06/17 08:46:55;;;;;;;7.13;1.90;;;;;;;;;;5138579;27;20239;-57
2022/06/17 08:49:34;;;;;;;5.13;1.67;;;;;;;;;;5136254;27;20259;-55
2022/06/17 08:52:25;;;;;;;6.50;1.60;;;;;;;;;;5137606;27;20296;-56
2022/06/17 08:55:21;;;;;;;3.67;1.80;;;;;;;;;;5137936;27;20205;-55
2022/06/17 08:58:14;;;;;;;2.70;1.33;;;;;;;;;;5136892;27;20201;-56
2022/06/17 09:01:05;;;;;;;6.55;1.48;;;;;;;;;;5137684;27;20242;-56
2022/06/17 09:03:38;;;;;;;3.65;1.50;;;;;;;;;;5136858;27;20237;-58
2022/06/17 09:06:25;;;;;;;3.75;1.45;;;;;;;;;;5137699;27;20269;-58
2022/06/17 09:09:10;;;;;;;5.63;1.50;;;;;;;;;;5136958;27;20521;-58
2022/06/17 09:11:48;;;;;;;4.32;1.67;;;;;;;;;;5136506;27;20656;-57
2022/06/17 09:14:27;;;;;;;2.88;1.33;;;;;;;;;;5137620;27;20482;-57
2022/06/17 09:17:22;;;;;;;4.57;1.60;;;;;;;;;;5137173;27;20214;-59
2022/06/17 09:19:53;;;;;;;3.47;1.50;;;;;;;;;;5137627;27;20200;-58
2022/06/17 09:22:27;;;;;;;5.45;1.52;;;;;;;;;;5136684;27;20229;-59
2022/06/17 09:24:57;;;;;;;4.00;1.52;;;;;;;;;;5136983;27;20224;-59
2022/06/17 09:27:28;;;;;;;6.20;1.67;;;;;;;;;;5136252;27;20220;-58
2022/06/17 09:30:17;;;;;;;3.53;1.30;;;;;;;;;;5136594;27;20229;-58
2022/06/17 09:32:49;;;;;;;1.92;1.20;;;;;;;;;;5137334;27;20579;-58
2022/06/17 09:35:40;;;;;;;7.05;1.58;;;;;;;;;;5136375;27;20193;-57
2022/06/17 09:38:13;;;;;;;3.83;1.48;;;;;;;;;;5136712;27;20197;-58
2022/06/17 09:40:43;;;;;;;3.55;1.05;;;;;;;;;;5136840;27;20233;-58
2022/06/17 09:43:18;;;;;;;4.35;1.05;;;;;;;;;;5136430;27;20216;-58
2022/06/17 09:45:48;;;;;;;3.55;1.40;;;;;;;;;;5135977;27;20192;-58
2022/06/17 09:48:20;;;;;;;2.78;0.98;;;;;;;;;;5136861;27;20261;-56
2022/06/17 09:50:56;;;;;;;1.55;0.93;;;;;;;;;;5136537;27;20217;-56
2022/06/17 09:53:33;;;;;;;1.92;1.15;;;;;;;;;;5135713;27;20201;-59
2022/06/17 09:56:19;;;;;;;3.67;1.00;;;;;;;;;;5136012;27;20253;-57
2022/06/17 09:59:05;;;;;;;3.53;1.10;;;;;;;;;;5136222;27;20205;-58
2022/06/17 10:01:32;;;;;;;2.95;0.90;;;;;;;;;;5136030;27;20240;-58
2022/06/17 10:04:00;;;;;;;5.88;1.20;;;;;;;;;;5136220;27;20201;-59
2022/06/17 10:07:08;;;;;;;2.00;1.17;;;;;;;;;;5136668;27;20274;-58
2022/06/17 10:10:10;;;;;;;2.38;1.20;;;;;;;;;;5115354;27;20274;-57
2022/06/17 10:12:49;;;;;;;2.10;0.80;;;;;;;;;;5136320;27;20704;-59
2022/06/17 10:15:35;;;;;;;4.03;1.10;;;;;;;;;;5135869;27;20212;-57
2022/06/17 10:18:33;;;;;;;5.28;1.20;;;;;;;;;;5136861;27;20201;-58
2022/06/17 10:21:18;;;;;;;2.67;1.02;;;;;;;;;;5136073;27;20674;-58
2022/06/17 10:23:57;;;;;;;3.95;1.40;;;;;;;;;;5136223;27;20507;-58
2022/06/17 10:27:18;;;;;;;2.03;0.70;;;;;;;;;;5135970;27;20193;-58
2022/06/17 10:30:06;;;;;;;4.15;1.13;;;;;;;;;;5073286;28;20195;-59
2022/06/17 10:32:36;;;;;;;3.53;1.17;;;;;;;;;;5133913;27;20201;-58
2022/06/17 10:35:06;;;;;;;3.05;1.25;;;;;;;;;;5135079;27;20201;-58
2022/06/17 10:37:35;;;;;;;3.47;0.88;;;;;;;;;;5135087;27;20193;-59
2022/06/17 10:40:22;;;;;;;6.03;1.20;;;;;;;;;;5134897;28;20673;-57
2022/06/17 10:42:50;;;;;;;3.60;1.35;;;;;;;;;;5136612;27;20548;-56
2022/06/17 10:45:17;;;;;;;5.85;1.20;;;;;;;;;;5135129;28;20221;-55
2022/06/17 10:48:05;;;;;;;4.22;1.23;;;;;;;;;;5135859;27;20201;-58
2022/06/17 10:50:32;;;;;;;4.30;1.10;;;;;;;;;;5134930;28;20197;-55
2022/06/17 10:53:21;;;;;;;3.47;1.35;;;;;;;;;;5136667;27;20197;-57
2022/06/17 10:55:51;;;;;;;4.28;1.20;;;;;;;;;;5135948;27;20207;-56
2022/06/17 10:58:22;;;;;;;3.17;1.38;;;;;;;;;;5136043;27;20205;-58
2022/06/17 11:00:53;;;;;;;2.97;1.20;;;;;;;;;;5135752;27;20211;-56
2022/06/17 11:03:25;;;;;;;5.30;1.30;;;;;;;;;;5135525;27;20657;-58
2022/06/17 11:05:57;;;;;;;3.35;1.23;;;;;;;;;;5136074;27;20268;-54
2022/06/17 11:08:28;;;;;;;3.22;1.20;;;;;;;;;;5134978;28;20274;-57
2022/06/17 11:12:02;;;;;;;3.22;1.20;;;;;;;;;;5136455;27;20201;-57
2022/06/17 11:13:46;;;;;;;4.53;1.00;;;;;;;;;;5135421;28;20209;-57
2022/06/17 11:16:21;;;;;;;4.75;1.45;;;;;;;;;;5135034;28;20225;-54
2022/06/17 11:19:15;;;;;;;4.35;1.13;;;;;;;;;;5134498;28;20205;-59
2022/06/17 11:21:49;;;;;;;4.40;1.10;;;;;;;;;;5131885;28;20252;-58
2022/06/17 11:24:29;;;;;;;3.63;1.10;;;;;;;;;;5135372;28;20201;-54
2022/06/17 11:27:13;;;;;;;1.95;1.05;;;;;;;;;;5136405;27;20197;-57
2022/06/17 11:29:47;;;;;;;4.47;1.27;;;;;;;;;;5138458;27;20629;-52
2022/06/17 11:32:20;;;;;;;3.03;1.27;;;;;;;;;;5139436;27;20240;-56
2022/06/17 11:34:50;;;;;;;6.45;1.20;;;;;;;;;;5140099;27;20239;-54
2022/06/17 11:37:20;;;;;;;4.07;1.27;;;;;;;;;;5139901;27;20575;-54
2022/06/17 11:39:47;;;;;;;4.35;1.20;;;;;;;;;;5138033;27;20536;-56
2022/06/17 11:42:24;;;;;;;2.10;1.23;;;;;;;;;;5121689;27;20602;-57
2022/06/17 11:44:55;;;;;;;3.17;1.20;;;;;;;;;;5138142;27;20236;-54
2022/06/17 11:47:25;;;;;;;7.55;1.27;;;;;;;;;;5138108;27;20538;-55
2022/06/17 11:49:55;;;;;;;1.65;1.17;;;;;;;;;;5138580;27;20197;-55
2022/06/17 11:52:28;;;;;;;1.73;1.00;;;;;;;;;;5138210;27;20290;-53
2022/06/17 11:54:56;;;;;;;5.90;1.20;;;;;;;;;;5139379;27;20219;-54
2022/06/17 11:57:32;;;;;;;3.63;1.00;;;;;;;;;;5138880;27;20205;-57
2022/06/17 12:00:04;;;;;;;3.65;1.17;;;;;;;;;;5138691;27;20204;-57
2022/06/17 12:02:55;;;;;;;3.72;1.25;;;;;;;;;;5139271;27;20235;-56
2022/06/17 12:05:31;;;;;;;4.28;0.93;;;;;;;;;;5138563;27;20216;-57
2022/06/17 12:08:01;;;;;;;2.88;1.05;;;;;;;;;;5138725;27;20189;-57
2022/06/17 12:10:38;;;;;;;5.75;1.48;;;;;;;;;;5138430;27;20197;-58
2022/06/17 12:13:33;;;;;;;2.85;1.25;;;;;;;;;;5138226;27;20257;-57
2022/06/17 12:16:19;;;;;;;3.50;1.20;;;;;;;;;;5138253;27;20185;-57
2022/06/17 12:18:48;;;;;;;1.98;1.00;;;;;;;;;;5138119;27;20200;-57
2022/06/17 12:21:32;;;;;;;6.30;1.02;;;;;;;;;;5120094;27;20201;-55
2022/06/17 12:24:36;;;;;;;3.80;1.13;;;;;;;;;;5138205;27;20637;-57
2022/06/17 12:27:07;;;;;;;2.22;0.90;;;;;;;;;;5138252;27;20200;-59
2022/06/17 12:29:44;;;;;;;5.90;1.20;;;;;;;;;;5138178;27;20201;-58
2022/06/17 12:32:35;;;;;;;2.42;1.10;;;;;;;;;;5137686;27;20189;-57
2022/06/17 12:35:25;;;;;;;6.13;1.15;;;;;;;;;;5138175;27;20216;-58
2022/06/17 12:37:53;;;;;;;2.22;1.13;;;;;;;;;;5138336;27;20200;-59
2022/06/17 12:40:24;;;;;;;4.15;1.38;;;;;;;;;;5137971;27;20228;-57
2022/06/17 12:43:06;;;;;;;5.18;1.30;;;;;;;;;;5115768;28;20222;-56
2022/06/17 12:45:59;;;;;;;2.08;1.13;;;;;;;;;;5098906;28;20198;-58
2022/06/17 12:48:44;;;;;;;2.70;1.00;;;;;;;;;;5115774;28;20229;-58
2022/06/17 12:54:49;;;;;;;2.60;1.10;;;;;;;;;;5116085;28;20229;-55
2022/06/17 12:57:37;;;;;;;4.15;1.20;;;;;;;;;;5115508;28;20206;-58
2022/06/17 13:00:10;;;;;;;3.15;1.20;;;;;;;;;;5115345;28;20201;-58
2022/06/17 13:02:49;;;;;;;4.43;1.35;;;;;;;;;;5115464;28;20237;-56
2022/06/17 13:05:36;;;;;;;1.83;1.02;;;;;;;;;;5115469;28;20244;-57
2022/06/17 13:08:31;;;;;;;2.80;0.88;;;;;;;;;;5115438;28;20194;-58
2022/06/17 13:11:19;;;;;;;2.88;1.27;;;;;;;;;;5115331;28;20288;-56
2022/06/17 13:13:56;;;;;;;1.55;1.08;;;;;;;;;;5124770;27;20205;-57
2022/06/17 13:16:33;;;;;;;1.88;1.02;;;;;;;;;;5137518;27;20228;-54
2022/06/17 13:19:33;;;;;;;2.58;1.20;;;;;;;;;;5137099;27;20695;-56
2022/06/17 13:22:14;;;;;;;2.55;1.35;;;;;;;;;;5136112;27;20676;-57
2022/06/17 13:25:02;;;;;;;5.00;1.08;;;;;;;;;;5136945;27;20351;-58
2022/06/17 13:27:36;;;;;;;3.15;1.00;;;;;;;;;;5137607;27;20288;-59
2022/06/17 13:30:15;;;;;;;2.65;1.00;;;;;;;;;;5136037;27;20629;-58
2022/06/17 13:32:46;;;;;;;3.42;1.00;;;;;;;;;;5136263;27;20270;-57
2022/06/17 13:35:17;;;;;;;4.00;0.90;;;;;;;;;;5136844;27;20262;-58
2022/06/17 13:37:53;;;;;;;1.58;0.80;;;;;;;;;;5136701;27;20288;-58
2022/06/17 13:40:30;;;;;;;1.60;0.75;;;;;;;;;;5136004;27;20237;-57
2022/06/17 13:43:04;;;;;;;2.17;1.10;;;;;;;;;;5136104;27;20307;-59
2022/06/17 13:45:53;;;;;;;2.70;1.10;;;;;;;;;;5135833;27;20225;-59
2022/06/17 13:48:30;;;;;;;1.45;0.88;;;;;;;;;;5135757;27;20203;-57
2022/06/17 13:51:09;;;;;;;2.10;0.90;;;;;;;;;;5135399;27;20205;-58
2022/06/17 13:53:58;;;;;;;5.03;1.10;;;;;;;;;;5136572;27;20222;-55
2022/06/17 13:56:31;;;;;;;3.78;0.93;;;;;;;;;;5137425;27;20189;-57
2022/06/17 13:59:06;;;;;;;2.90;0.93;;;;;;;;;;5136473;27;20209;-57
2022/06/17 14:01:45;;;;;;;3.97;0.90;;;;;;;;;;5135632;27;20234;-58
2022/06/17 14:04:16;;;;;;;2.13;0.80;;;;;;;;;;5136671;27;20586;-55
2022/06/17 14:06:50;;;;;;;2.08;1.05;;;;;;;;;;5136222;27;20208;-53
2022/06/17 14:09:26;;;;;;;3.38;0.90;;;;;;;;;;5136180;27;20204;-52
2022/06/17 14:11:54;;;;;;;3.45;1.00;;;;;;;;;;5136784;27;20273;-54
2022/06/17 14:14:22;;;;;;;2.92;0.90;;;;;;;;;;5135310;27;20193;-54
2022/06/17 14:17:01;;;;;;;3.60;0.90;;;;;;;;;;5136292;27;20219;-55
2022/06/17 14:19:47;;;;;;;2.33;0.82;;;;;;;;;;5136070;27;20197;-55
2022/06/17 14:22:28;;;;;;;2.17;1.20;;;;;;;;;;5136431;27;20256;-56
2022/06/17 14:25:09;;;;;;;3.72;1.25;;;;;;;;;;5136199;27;20205;-59
2022/06/17 14:27:35;;;;;;;3.08;1.00;;;;;;;;;;5136678;27;20225;-58
2022/06/17 14:30:12;;;;;;;2.35;0.82;;;;;;;;;;5136494;27;20201;-57
2022/06/17 14:32:46;;;;;;;5.75;1.00;;;;;;;;;;5135943;27;20291;-56
2022/06/17 14:35:28;;;;;;;1.55;0.80;;;;;;;;;;5135906;27;20210;-57
2022/06/17 14:38:17;;;;;;;1.48;0.70;;;;;;;;;;5135893;27;20618;-58
2022/06/17 14:44:13;;;;;;;1.83;1.02;;;;;;;;;;5135964;28;20316;-54
2022/06/17 14:47:28;;;;;;;3.30;1.05;;;;;;;;;;5127938;28;20220;-54
2022/06/17 14:49:55;;;;;;;3.75;0.70;;;;;;;;;;5135687;27;20297;-54
2022/06/17 14:52:32;;;;;;;2.33;1.00;;;;;;;;;;5135581;27;20205;-53
2022/06/17 14:55:00;;;;;;;2.63;0.93;;;;;;;;;;5136184;27;20290;-54
2022/06/17 14:57:31;;;;;;;2.75;1.27;;;;;;;;;;5135067;28;20197;-54
2022/06/17 15:00:03;;;;;;;3.13;0.85;;;;;;;;;;5135615;27;20545;-55
2022/06/17 15:02:40;;;;;;;2.47;0.85;;;;;;;;;;5136964;27;20225;-53
2022/06/17 15:05:20;;;;;;;3.33;1.10;;;;;;;;;;5139500;27;20209;-56
2022/06/17 15:07:54;;;;;;;1.60;1.00;;;;;;;;;;5140525;27;20181;-59
2022/06/17 15:10:24;;;;;;;2.55;0.73;;;;;;;;;;5139660;27;20189;-58
2022/06/17 15:13:04;;;;;;;3.47;1.08;;;;;;;;;;5139862;27;20257;-54
2022/06/17 15:15:35;;;;;;;8.75;1.02;;;;;;;;;;5140088;27;20185;-58
2022/06/17 15:18:11;;;;;;;2.33;1.00;;;;;;;;;;5140219;27;20255;-52
2022/06/17 15:20:41;;;;;;;2.45;0.93;;;;;;;;;;5139601;27;20541;-57
2022/06/17 15:23:14;;;;;;;3.47;0.93;;;;;;;;;;5139278;27;20217;-56
2022/06/17 15:25:47;;;;;;;3.28;1.00;;;;;;;;;;5139393;27;20221;-58
2022/06/17 15:28:26;;;;;;;1.80;1.00;;;;;;;;;;5140253;27;20190;-58
2022/06/17 15:31:13;;;;;;;5.03;1.00;;;;;;;;;;5139582;27;20530;-56
2022/06/17 15:33:56;;;;;;;1.50;0.98;;;;;;;;;;5139164;27;20202;-57
2022/06/17 15:36:32;;;;;;;1.33;0.70;;;;;;;;;;5139252;27;20201;-58
2022/06/17 15:39:28;;;;;;;2.33;0.77;;;;;;;;;;5139477;27;20205;-58
2022/06/17 15:42:18;;;;;;;2.20;1.20;;;;;;;;;;5138813;27;20376;-57
2022/06/17 15:45:20;;;;;;;2.00;1.10;;;;;;;;;;5139040;27;20209;-57